sensor_id;sensor_type;location;lat;lon;timestamp;pressure;altitude;pressure_sealevel;temperature;humidity
76853;BME280;65825;52.232;10.566;2024-02-28T00:01:25;101068.00;;;7.79;62.99
76853;BME280;65825;52.232;10.566;2024-02-28T00:03:51;101073.13;;;7.89;62.16
76853;BME280;65825;52.232;10.566;2024-02-28T00:06:17;101074.16;;;7.78;62.29
76853;BME280;65825;52.232;10.566;2024-02-28T00:08:42;101072.41;;;7.78;62.99
76853;BME280;65825;52.232;10.566;2024-02-28T00:11:08;101074.16;;;7.78;61.22
76853;BME280;65825;52.232;10.566;2024-02-28T00:13:33;101072.41;;;7.78;62.13
76853;BME280;65825;52.232;10.566;2024-02-28T00:15:58;101083.31;;;7.50;62.92
76853;BME280;65825;52.232;10.566;2024-02-28T00:18:24;101067.22;;;7.03;63.78
76853;BME280;65825;52.232;10.566;2024-02-28T00:20:49;101075.72;;;7.24;64.55
76853;BME280;65825;52.232;10.566;2024-02-28T00:23:14;101072.91;;;7.42;63.11
76853;BME280;65825;52.232;10.566;2024-02-28T00:25:40;101077.97;;;7.56;62.75
76853;BME280;65825;52.232;10.566;2024-02-28T00:28:05;101079.81;;;7.48;62.57
76853;BME280;65825;52.232;10.566;2024-02-28T00:30:30;101076.47;;;7.37;62.87
76853;BME280;65825;52.232;10.566;2024-02-28T00:32:57;101077.63;;;7.13;63.53
76853;BME280;65825;52.232;10.566;2024-02-28T00:35:23;101089.03;;;7.08;63.69
76853;BME280;65825;52.232;10.566;2024-02-28T00:37:48;101087.41;;;6.98;63.92
76853;BME280;65825;52.232;10.566;2024-02-28T00:40:13;101094.63;;;6.78;64.98
76853;BME280;65825;52.232;10.566;2024-02-28T00:42:38;101095.69;;;6.62;64.91
76853;BME280;65825;52.232;10.566;2024-02-28T00:45:04;101094.88;;;6.52;65.46
76853;BME280;65825;52.232;10.566;2024-02-28T00:47:29;101099.16;;;6.62;65.13
76853;BME280;65825;52.232;10.566;2024-02-28T00:49:55;101101.97;;;6.38;65.32
76853;BME280;65825;52.232;10.566;2024-02-28T00:52:20;101099.41;;;6.34;65.58
76853;BME280;65825;52.232;10.566;2024-02-28T00:54:45;101101.13;;;6.33;65.39
76853;BME280;65825;52.232;10.566;2024-02-28T00:57:11;101100.19;;;6.43;65.38
76853;BME280;65825;52.232;10.566;2024-02-28T00:59:36;101101.78;;;6.62;64.29
76853;BME280;65825;52.232;10.566;2024-02-28T01:02:01;101104.34;;;6.67;64.30
76853;BME280;65825;52.232;10.566;2024-02-28T01:04:28;101102.66;;;6.61;64.60
76853;BME280;65825;52.232;10.566;2024-02-28T01:06:54;101107.84;;;6.69;64.41
76853;BME280;65825;52.232;10.566;2024-02-28T01:09:19;101107.88;;;6.64;64.52
76853;BME280;65825;52.232;10.566;2024-02-28T01:11:45;101120.91;;;6.73;64.38
76853;BME280;65825;52.232;10.566;2024-02-28T01:14:10;101111.38;;;6.65;64.81
76853;BME280;65825;52.232;10.566;2024-02-28T01:16:36;101120.13;;;6.64;64.32
76853;BME280;65825;52.232;10.566;2024-02-28T01:19:01;101108.69;;;6.69;64.45
76853;BME280;65825;52.232;10.566;2024-02-28T01:21:28;101116.56;;;6.69;64.31
76853;BME280;65825;52.232;10.566;2024-02-28T01:23:53;101112.91;;;6.87;63.78
76853;BME280;65825;52.232;10.566;2024-02-28T01:26:18;101119.09;;;6.83;63.56
76853;BME280;65825;52.232;10.566;2024-02-28T01:28:46;101112.81;;;6.93;63.17
76853;BME280;65825;52.232;10.566;2024-02-28T01:31:12;101124.03;;;7.11;63.08
76853;BME280;65825;52.232;10.566;2024-02-28T01:33:37;101114.00;;;6.65;63.74
76853;BME280;65825;52.232;10.566;2024-02-28T01:36:04;101101.19;;;6.30;64.23
76853;BME280;65825;52.232;10.566;2024-02-28T01:38:30;101127.22;;;6.51;64.63
76853;BME280;65825;52.232;10.566;2024-02-28T01:40:55;101115.06;;;6.43;65.02
76853;BME280;65825;52.232;10.566;2024-02-28T01:43:20;101113.34;;;6.36;64.72
76853;BME280;65825;52.232;10.566;2024-02-28T01:45:45;101108.88;;;6.53;65.19
76853;BME280;65825;52.232;10.566;2024-02-28T01:48:11;101111.31;;;6.72;64.45
76853;BME280;65825;52.232;10.566;2024-02-28T01:50:37;101114.81;;;6.71;64.29
76853;BME280;65825;52.232;10.566;2024-02-28T01:53:04;101093.00;;;6.65;63.92
76853;BME280;65825;52.232;10.566;2024-02-28T01:55:31;101076.69;;;6.31;63.97
76853;BME280;65825;52.232;10.566;2024-02-28T01:57:56;101075.13;;;6.09;64.06
76853;BME280;65825;52.232;10.566;2024-02-28T02:00:22;101083.88;;;6.08;63.45
76853;BME280;65825;52.232;10.566;2024-02-28T02:02:49;101082.94;;;6.15;63.66
76853;BME280;65825;52.232;10.566;2024-02-28T02:05:14;101082.75;;;6.38;63.55
76853;BME280;65825;52.232;10.566;2024-02-28T02:07:42;101103.69;;;6.41;63.96
76853;BME280;65825;52.232;10.566;2024-02-28T02:10:08;101094.00;;;6.52;63.89
76853;BME280;65825;52.232;10.566;2024-02-28T02:12:37;101086.91;;;6.61;62.72
76853;BME280;65825;52.232;10.566;2024-02-28T02:15:02;101088.56;;;6.73;62.32
76853;BME280;65825;52.232;10.566;2024-02-28T02:17:28;101093.38;;;6.21;63.47
76853;BME280;65825;52.232;10.566;2024-02-28T02:19:53;101093.47;;;6.11;63.58
76853;BME280;65825;52.232;10.566;2024-02-28T02:22:19;101085.50;;;6.23;64.22
76853;BME280;65825;52.232;10.566;2024-02-28T02:24:45;101091.75;;;6.02;65.10
76853;BME280;65825;52.232;10.566;2024-02-28T02:27:13;101095.38;;;5.86;65.75
76853;BME280;65825;52.232;10.566;2024-02-28T02:29:39;101105.69;;;6.12;64.65
76853;BME280;65825;52.232;10.566;2024-02-28T02:32:04;101106.59;;;6.05;64.46
76853;BME280;65825;52.232;10.566;2024-02-28T02:34:30;101122.44;;;5.84;64.88
76853;BME280;65825;52.232;10.566;2024-02-28T02:36:55;101101.41;;;5.99;65.29
76853;BME280;65825;52.232;10.566;2024-02-28T02:39:20;101098.81;;;5.93;65.04
76853;BME280;65825;52.232;10.566;2024-02-28T02:41:46;101084.72;;;6.12;64.42
76853;BME280;65825;52.232;10.566;2024-02-28T02:44:12;101069.94;;;6.03;64.25
76853;BME280;65825;52.232;10.566;2024-02-28T02:46:38;101079.38;;;6.27;64.28
76853;BME280;65825;52.232;10.566;2024-02-28T02:49:04;101074.34;;;5.94;64.58
76853;BME280;65825;52.232;10.566;2024-02-28T02:51:29;101081.41;;;5.86;64.89
76853;BME280;65825;52.232;10.566;2024-02-28T02:53:54;101078.75;;;5.90;64.74
76853;BME280;65825;52.232;10.566;2024-02-28T02:56:20;101085.53;;;6.20;63.78
76853;BME280;65825;52.232;10.566;2024-02-28T02:58:45;101078.44;;;6.32;63.23
76853;BME280;65825;52.232;10.566;2024-02-28T03:01:10;101082.69;;;6.45;62.89
76853;BME280;65825;52.232;10.566;2024-02-28T03:03:36;101083.59;;;6.44;62.67
76853;BME280;65825;52.232;10.566;2024-02-28T03:06:03;101088.84;;;6.40;62.98
76853;BME280;65825;52.232;10.566;2024-02-28T03:08:30;101085.50;;;6.21;63.04
76853;BME280;65825;52.232;10.566;2024-02-28T03:10:55;101079.53;;;6.03;63.88
76853;BME280;65825;52.232;10.566;2024-02-28T03:13:20;101086.66;;;5.81;64.49
76853;BME280;65825;52.232;10.566;2024-02-28T03:15:46;101082.22;;;5.97;64.54
76853;BME280;65825;52.232;10.566;2024-02-28T03:18:11;101079.44;;;6.18;64.04
76853;BME280;65825;52.232;10.566;2024-02-28T03:20:36;101075.88;;;6.25;63.48
76853;BME280;65825;52.232;10.566;2024-02-28T03:23:04;101080.22;;;6.27;63.70
76853;BME280;65825;52.232;10.566;2024-02-28T03:25:34;101083.81;;;6.16;63.55
76853;BME280;65825;52.232;10.566;2024-02-28T03:27:59;101090.84;;;6.11;63.37
76853;BME280;65825;52.232;10.566;2024-02-28T03:30:26;101096.38;;;5.61;65.71
76853;BME280;65825;52.232;10.566;2024-02-28T03:32:51;101107.63;;;5.81;65.32
76853;BME280;65825;52.232;10.566;2024-02-28T03:35:16;101111.06;;;5.88;64.82
76853;BME280;65825;52.232;10.566;2024-02-28T03:37:42;101110.09;;;6.07;64.63
76853;BME280;65825;52.232;10.566;2024-02-28T03:40:08;101099.56;;;6.16;64.43
76853;BME280;65825;52.232;10.566;2024-02-28T03:42:33;101096.03;;;6.17;64.42
76853;BME280;65825;52.232;10.566;2024-02-28T03:44:58;101111.78;;;6.18;63.92
76853;BME280;65825;52.232;10.566;2024-02-28T03:47:24;101114.41;;;6.12;63.54
76853;BME280;65825;52.232;10.566;2024-02-28T03:49:50;101098.91;;;5.75;64.54
76853;BME280;65825;52.232;10.566;2024-02-28T03:52:15;101105.84;;;5.88;65.08
76853;BME280;65825;52.232;10.566;2024-02-28T03:54:44;101115.47;;;5.74;64.28
76853;BME280;65825;52.232;10.566;2024-02-28T03:57:10;101102.41;;;5.72;65.00
76853;BME280;65825;52.232;10.566;2024-02-28T03:59:35;101109.38;;;5.81;64.51
76853;BME280;65825;52.232;10.566;2024-02-28T04:02:00;101112.88;;;5.75;63.78
76853;BME280;65825;52.232;10.566;2024-02-28T04:04:26;101120.81;;;5.54;64.85
76853;BME280;65825;52.232;10.566;2024-02-28T04:06:51;101119.19;;;5.31;66.35
76853;BME280;65825;52.232;10.566;2024-02-28T04:09:17;101115.69;;;5.38;65.66
76853;BME280;65825;52.232;10.566;2024-02-28T04:11:42;101126.13;;;5.39;63.71
76853;BME280;65825;52.232;10.566;2024-02-28T04:14:08;101127.00;;;5.41;64.17
76853;BME280;65825;52.232;10.566;2024-02-28T04:16:33;101133.97;;;5.42;64.23
76853;BME280;65825;52.232;10.566;2024-02-28T04:18:58;101140.97;;;5.34;64.50
76853;BME280;65825;52.232;10.566;2024-02-28T04:21:24;101143.63;;;5.33;64.28
76853;BME280;65825;52.232;10.566;2024-02-28T04:23:49;101152.34;;;5.26;63.71
76853;BME280;65825;52.232;10.566;2024-02-28T04:26:14;101152.41;;;5.14;64.85
76853;BME280;65825;52.232;10.566;2024-02-28T04:28:42;101165.47;;;5.18;64.71
76853;BME280;65825;52.232;10.566;2024-02-28T04:31:07;101155.00;;;5.12;63.98
76853;BME280;65825;52.232;10.566;2024-02-28T04:33:32;101166.31;;;5.14;64.51
76853;BME280;65825;52.232;10.566;2024-02-28T04:35:58;101169.00;;;4.98;65.77
76853;BME280;65825;52.232;10.566;2024-02-28T04:38:23;101172.47;;;5.12;65.26
76853;BME280;65825;52.232;10.566;2024-02-28T04:40:48;101177.72;;;5.03;66.02
76853;BME280;65825;52.232;10.566;2024-02-28T04:43:14;101168.16;;;4.81;66.99
76853;BME280;65825;52.232;10.566;2024-02-28T04:45:40;101189.94;;;4.99;66.90
76853;BME280;65825;52.232;10.566;2024-02-28T04:48:05;101176.81;;;5.10;65.66
76853;BME280;65825;52.232;10.566;2024-02-28T04:50:31;101183.78;;;5.11;65.88
76853;BME280;65825;52.232;10.566;2024-02-28T04:52:56;101203.81;;;5.31;66.30
76853;BME280;65825;52.232;10.566;2024-02-28T04:55:22;101193.38;;;5.33;65.95
76853;BME280;65825;52.232;10.566;2024-02-28T04:57:47;101192.47;;;5.40;66.27
76853;BME280;65825;52.232;10.566;2024-02-28T05:00:12;101195.97;;;5.39;65.82
76853;BME280;65825;52.232;10.566;2024-02-28T05:02:38;101197.69;;;5.40;65.72
76853;BME280;65825;52.232;10.566;2024-02-28T05:05:03;101200.31;;;5.41;65.71
76853;BME280;65825;52.232;10.566;2024-02-28T05:07:29;101184.66;;;5.26;66.19
76853;BME280;65825;52.232;10.566;2024-02-28T05:09:54;101201.22;;;5.31;66.26
76853;BME280;65825;52.232;10.566;2024-02-28T05:12:19;101203.88;;;4.85;68.34
76853;BME280;65825;52.232;10.566;2024-02-28T05:14:44;101203.84;;;5.06;68.18
76853;BME280;65825;52.232;10.566;2024-02-28T05:17:10;101194.31;;;4.79;68.63
76853;BME280;65825;52.232;10.566;2024-02-28T05:19:35;101199.50;;;5.08;67.71
76853;BME280;65825;52.232;10.566;2024-02-28T05:22:01;101204.72;;;5.30;67.32
76853;BME280;65825;52.232;10.566;2024-02-28T05:24:26;101200.28;;;5.49;67.00
76853;BME280;65825;52.232;10.566;2024-02-28T05:26:52;101202.91;;;5.47;66.56
76853;BME280;65825;52.232;10.566;2024-02-28T05:29:17;101201.16;;;5.49;66.46
76853;BME280;65825;52.232;10.566;2024-02-28T05:31:42;101207.25;;;5.54;66.34
76853;BME280;65825;52.232;10.566;2024-02-28T05:34:07;101207.25;;;5.56;65.72
76853;BME280;65825;52.232;10.566;2024-02-28T05:36:33;101206.38;;;5.54;66.80
76853;BME280;65825;52.232;10.566;2024-02-28T05:39:00;101207.28;;;5.44;66.84
76853;BME280;65825;52.232;10.566;2024-02-28T05:41:26;101202.06;;;5.44;66.95
76853;BME280;65825;52.232;10.566;2024-02-28T05:43:51;101209.88;;;5.51;66.77
76853;BME280;65825;52.232;10.566;2024-02-28T05:46:17;101209.06;;;5.31;67.25
76853;BME280;65825;52.232;10.566;2024-02-28T05:48:44;101210.78;;;5.31;67.35
76853;BME280;65825;52.232;10.566;2024-02-28T05:51:10;101208.19;;;5.35;67.38
76853;BME280;65825;52.232;10.566;2024-02-28T05:53:36;101219.56;;;5.15;67.52
76853;BME280;65825;52.232;10.566;2024-02-28T05:56:02;101216.06;;;5.19;67.75
76853;BME280;65825;52.232;10.566;2024-02-28T05:58:28;101209.97;;;5.00;68.15
76853;BME280;65825;52.232;10.566;2024-02-28T06:00:53;101230.03;;;5.04;67.62
76853;BME280;65825;52.232;10.566;2024-02-28T06:03:18;101232.63;;;5.33;67.55
76853;BME280;65825;52.232;10.566;2024-02-28T06:05:44;101233.47;;;5.39;66.75
76853;BME280;65825;52.232;10.566;2024-02-28T06:08:09;101222.94;;;5.53;66.39
76853;BME280;65825;52.232;10.566;2024-02-28T06:10:35;101236.03;;;5.56;67.29
76853;BME280;65825;52.232;10.566;2024-02-28T06:13:01;101236.06;;;5.51;66.88
76853;BME280;65825;52.232;10.566;2024-02-28T06:15:26;101242.19;;;5.29;67.07
76853;BME280;65825;52.232;10.566;2024-02-28T06:17:52;101251.78;;;5.32;67.28
76853;BME280;65825;52.232;10.566;2024-02-28T06:20:20;101255.28;;;5.40;66.66
76853;BME280;65825;52.232;10.566;2024-02-28T06:22:45;101264.00;;;5.42;66.61
76853;BME280;65825;52.232;10.566;2024-02-28T06:25:11;101257.03;;;5.36;65.94
76853;BME280;65825;52.232;10.566;2024-02-28T06:27:44;101271.00;;;5.35;66.05
76853;BME280;65825;52.232;10.566;2024-02-28T06:30:09;101264.91;;;5.26;65.88
76853;BME280;65825;52.232;10.566;2024-02-28T06:32:35;101264.03;;;5.19;66.01
76853;BME280;65825;52.232;10.566;2024-02-28T06:35:00;101274.50;;;5.09;66.41
76853;BME280;65825;52.232;10.566;2024-02-28T06:37:25;101280.63;;;5.08;66.45
76853;BME280;65825;52.232;10.566;2024-02-28T06:39:51;101277.13;;;5.15;65.74
76853;BME280;65825;52.232;10.566;2024-02-28T06:42:16;101290.19;;;5.13;65.86
76853;BME280;65825;52.232;10.566;2024-02-28T06:44:41;101291.09;;;5.08;66.24
76853;BME280;65825;52.232;10.566;2024-02-28T06:47:06;101284.97;;;4.95;66.43
76853;BME280;65825;52.232;10.566;2024-02-28T06:49:32;101297.09;;;4.45;67.48
76853;BME280;65825;52.232;10.566;2024-02-28T06:51:57;101305.84;;;4.65;68.66
76853;BME280;65825;52.232;10.566;2024-02-28T06:54:26;101313.72;;;4.67;68.07
76853;BME280;65825;52.232;10.566;2024-02-28T06:56:51;101298.78;;;4.25;69.79
76853;BME280;65825;52.232;10.566;2024-02-28T06:59:16;101311.91;;;4.48;70.21
76853;BME280;65825;52.232;10.566;2024-02-28T07:01:42;101300.56;;;4.37;71.06
76853;BME280;65825;52.232;10.566;2024-02-28T07:04:07;101310.13;;;4.32;70.31
76853;BME280;65825;52.232;10.566;2024-02-28T07:06:32;101312.75;;;4.44;70.70
76853;BME280;65825;52.232;10.566;2024-02-28T07:08:57;101306.56;;;4.13;72.12
76853;BME280;65825;52.232;10.566;2024-02-28T07:11:23;101303.13;;;4.22;71.69
76853;BME280;65825;52.232;10.566;2024-02-28T07:13:48;101300.56;;;4.38;72.41
76853;BME280;65825;52.232;10.566;2024-02-28T07:16:13;101294.44;;;4.32;71.13
76853;BME280;65825;52.232;10.566;2024-02-28T07:18:39;101290.13;;;4.38;71.93
76853;BME280;65825;52.232;10.566;2024-02-28T07:21:04;101286.72;;;4.77;70.95
76853;BME280;65825;52.232;10.566;2024-02-28T07:23:31;101287.59;;;5.04;70.77
76853;BME280;65825;52.232;10.566;2024-02-28T07:25:57;101281.50;;;5.17;69.91
76853;BME280;65825;52.232;10.566;2024-02-28T07:28:22;101287.59;;;5.07;69.67
76853;BME280;65825;52.232;10.566;2024-02-28T07:30:47;101291.91;;;5.53;68.09
76853;BME280;65825;52.232;10.566;2024-02-28T07:33:13;101289.28;;;5.70;67.98
76853;BME280;65825;52.232;10.566;2024-02-28T07:35:49;101299.69;;;5.79;67.18
76853;BME280;65825;52.232;10.566;2024-02-28T07:38:15;101310.22;;;5.80;67.19
76853;BME280;65825;52.232;10.566;2024-02-28T07:40:42;101316.31;;;5.79;67.13
76853;BME280;65825;52.232;10.566;2024-02-28T07:43:08;101311.97;;;5.60;67.91
76853;BME280;65825;52.232;10.566;2024-02-28T07:45:33;101313.66;;;5.99;67.21
76853;BME280;65825;52.232;10.566;2024-02-28T07:47:58;101306.72;;;5.68;67.94
76853;BME280;65825;52.232;10.566;2024-02-28T07:50:23;101311.97;;;5.71;68.74
76853;BME280;65825;52.232;10.566;2024-02-28T07:52:49;101310.22;;;5.91;67.57
76853;BME280;65825;52.232;10.566;2024-02-28T07:55:14;101311.09;;;5.88;67.35
76853;BME280;65825;52.232;10.566;2024-02-28T07:57:40;101311.84;;;6.19;69.34
76853;BME280;65825;52.232;10.566;2024-02-28T08:00:05;101312.28;;;6.93;67.63
76853;BME280;65825;52.232;10.566;2024-02-28T08:02:31;101312.09;;;7.21;65.15
76853;BME280;65825;52.232;10.566;2024-02-28T08:04:57;101306.91;;;7.12;64.02
76853;BME280;65825;52.232;10.566;2024-02-28T08:07:22;101315.50;;;7.31;64.09
76853;BME280;65825;52.232;10.566;2024-02-28T08:09:47;101317.41;;;7.12;63.92
76853;BME280;65825;52.232;10.566;2024-02-28T08:12:13;101319.03;;;7.27;65.36
76853;BME280;65825;52.232;10.566;2024-02-28T08:14:38;101318.13;;;7.32;63.93
76853;BME280;65825;52.232;10.566;2024-02-28T08:17:04;101315.00;;;6.81;65.04
76853;BME280;65825;52.232;10.566;2024-02-28T08:19:29;101322.91;;;6.78;64.92
76853;BME280;65825;52.232;10.566;2024-02-28T08:21:54;101326.59;;;6.41;66.21
76853;BME280;65825;52.232;10.566;2024-02-28T08:24:20;101322.28;;;6.31;67.23
76853;BME280;65825;52.232;10.566;2024-02-28T08:26:45;101327.66;;;5.93;67.78
76853;BME280;65825;52.232;10.566;2024-02-28T08:29:10;101324.97;;;6.14;67.91
76853;BME280;65825;52.232;10.566;2024-02-28T08:31:43;101322.25;;;6.34;66.77
76853;BME280;65825;52.232;10.566;2024-02-28T08:34:08;101322.22;;;6.44;66.86
76853;BME280;65825;52.232;10.566;2024-02-28T08:36:35;101316.25;;;6.05;67.51
76853;BME280;65825;52.232;10.566;2024-02-28T08:39:01;101327.56;;;6.22;68.04
76853;BME280;65825;52.232;10.566;2024-02-28T08:41:26;101339.91;;;5.97;68.16
76853;BME280;65825;52.232;10.566;2024-02-28T08:43:51;101331.94;;;6.12;67.73
76853;BME280;65825;52.232;10.566;2024-02-28T08:46:16;101339.63;;;6.62;66.90
76853;BME280;65825;52.232;10.566;2024-02-28T08:48:42;101335.28;;;6.55;66.90
76853;BME280;65825;52.232;10.566;2024-02-28T08:51:07;101331.03;;;6.24;67.19
76853;BME280;65825;52.232;10.566;2024-02-28T08:53:33;101332.88;;;5.99;67.53
76853;BME280;65825;52.232;10.566;2024-02-28T08:55:58;101332.81;;;6.19;67.24
76853;BME280;65825;52.232;10.566;2024-02-28T08:58:23;101331.94;;;6.23;67.23
76853;BME280;65825;52.232;10.566;2024-02-28T09:00:49;101328.44;;;6.27;66.74
76853;BME280;65825;52.232;10.566;2024-02-28T09:03:14;101331.91;;;6.32;67.51
76853;BME280;65825;52.232;10.566;2024-02-28T09:05:39;101344.09;;;6.42;67.14
76853;BME280;65825;52.232;10.566;2024-02-28T09:08:05;101329.09;;;6.63;66.11
76853;BME280;65825;52.232;10.566;2024-02-28T09:10:30;101337.91;;;6.55;66.53
76853;BME280;65825;52.232;10.566;2024-02-28T09:12:59;101340.31;;;6.91;65.78
76853;BME280;65825;52.232;10.566;2024-02-28T09:15:24;101349.66;;;7.26;64.95
76853;BME280;65825;52.232;10.566;2024-02-28T09:17:50;101338.38;;;7.15;64.68
76853;BME280;65825;52.232;10.566;2024-02-28T09:20:15;101341.03;;;7.14;64.07
76853;BME280;65825;52.232;10.566;2024-02-28T09:22:42;101343.38;;;7.48;64.40
76853;BME280;65825;52.232;10.566;2024-02-28T09:25:07;101336.38;;;7.47;64.09
76853;BME280;65825;52.232;10.566;2024-02-28T09:27:34;101343.25;;;7.59;63.71
76853;BME280;65825;52.232;10.566;2024-02-28T09:29:59;101331.09;;;7.49;63.85
76853;BME280;65825;52.232;10.566;2024-02-28T09:32:25;101335.38;;;7.59;63.88
76853;BME280;65825;52.232;10.566;2024-02-28T09:34:50;101335.50;;;7.44;63.10
76853;BME280;65825;52.232;10.566;2024-02-28T09:37:15;101333.72;;;7.52;62.13
76853;BME280;65825;52.232;10.566;2024-02-28T09:39:42;101334.63;;;7.46;62.98
76853;BME280;65825;52.232;10.566;2024-02-28T09:42:09;101331.22;;;7.35;62.97
76853;BME280;65825;52.232;10.566;2024-02-28T09:44:36;101339.97;;;7.37;63.26
76853;BME280;65825;52.232;10.566;2024-02-28T09:47:02;101340.00;;;7.31;63.56
76853;BME280;65825;52.232;10.566;2024-02-28T09:49:28;101352.16;;;7.47;63.36
76853;BME280;65825;52.232;10.566;2024-02-28T09:51:56;101346.59;;;7.77;61.84
76853;BME280;65825;52.232;10.566;2024-02-28T09:54:22;101349.94;;;7.93;63.12
76853;BME280;65825;52.232;10.566;2024-02-28T09:56:47;101348.38;;;7.72;62.87
76853;BME280;65825;52.232;10.566;2024-02-28T09:59:16;101349.41;;;7.58;62.59
76853;BME280;65825;52.232;10.566;2024-02-28T10:01:44;101337.47;;;7.21;64.14
76853;BME280;65825;52.232;10.566;2024-02-28T10:04:12;101347.53;;;7.72;62.50
76853;BME280;65825;52.232;10.566;2024-02-28T10:06:39;101353.06;;;7.42;63.15
76853;BME280;65825;52.232;10.566;2024-02-28T10:09:05;101352.84;;;7.66;63.14
76853;BME280;65825;52.232;10.566;2024-02-28T10:11:30;101354.66;;;7.61;62.75
76853;BME280;65825;52.232;10.566;2024-02-28T10:13:55;101352.66;;;7.87;62.84
76853;BME280;65825;52.232;10.566;2024-02-28T10:16:21;101356.31;;;9.11;60.43
76853;BME280;65825;52.232;10.566;2024-02-28T10:18:49;101362.47;;;9.12;58.64
76853;BME280;65825;52.232;10.566;2024-02-28T10:21:15;101374.34;;;8.81;60.38
76853;BME280;65825;52.232;10.566;2024-02-28T10:23:41;101372.09;;;8.49;60.96
76853;BME280;65825;52.232;10.566;2024-02-28T10:26:09;101390.44;;;8.55;61.86
76853;BME280;65825;52.232;10.566;2024-02-28T10:28:39;101385.50;;;8.28;61.16
76853;BME280;65825;52.232;10.566;2024-02-28T10:31:08;101383.84;;;8.18;61.60
76853;BME280;65825;52.232;10.566;2024-02-28T10:33:33;101390.00;;;8.16;62.48
76853;BME280;65825;52.232;10.566;2024-02-28T10:36:02;101386.31;;;8.35;62.12
76853;BME280;65825;52.232;10.566;2024-02-28T10:38:28;101397.69;;;8.38;60.93
76853;BME280;65825;52.232;10.566;2024-02-28T10:40:53;101388.81;;;8.45;61.94
76853;BME280;65825;52.232;10.566;2024-02-28T10:43:19;101395.78;;;8.49;61.97
76853;BME280;65825;52.232;10.566;2024-02-28T10:45:45;101397.75;;;8.34;62.43
76853;BME280;65825;52.232;10.566;2024-02-28T10:48:14;101395.84;;;8.46;62.30
76853;BME280;65825;52.232;10.566;2024-02-28T10:50:39;101400.97;;;9.20;60.72
76853;BME280;65825;52.232;10.566;2024-02-28T10:53:10;101395.38;;;9.41;59.52
76853;BME280;65825;52.232;10.566;2024-02-28T10:55:40;101387.69;;;9.26;59.76
76853;BME280;65825;52.232;10.566;2024-02-28T10:58:10;101404.53;;;9.18;60.12
76853;BME280;65825;52.232;10.566;2024-02-28T11:00:36;101394.56;;;8.77;60.66
76853;BME280;65825;52.232;10.566;2024-02-28T11:03:07;101404.66;;;8.41;62.19
76853;BME280;65825;52.232;10.566;2024-02-28T11:05:37;101403.69;;;8.49;62.01
76853;BME280;65825;52.232;10.566;2024-02-28T11:08:07;101397.34;;;7.84;63.81
76853;BME280;65825;52.232;10.566;2024-02-28T11:10:33;101388.63;;;7.82;64.91
76853;BME280;65825;52.232;10.566;2024-02-28T11:12:58;101401.50;;;8.06;64.15
76853;BME280;65825;52.232;10.566;2024-02-28T11:15:24;101389.13;;;8.20;64.24
76853;BME280;65825;52.232;10.566;2024-02-28T11:17:50;101394.63;;;7.94;64.42
76853;BME280;65825;52.232;10.566;2024-02-28T11:20:15;101396.91;;;8.30;64.06
76853;BME280;65825;52.232;10.566;2024-02-28T11:22:41;101390.78;;;8.28;63.63
76853;BME280;65825;52.232;10.566;2024-02-28T11:25:06;101386.75;;;8.71;62.79
76853;BME280;65825;52.232;10.566;2024-02-28T11:27:32;101380.13;;;9.05;62.16
76853;BME280;65825;52.232;10.566;2024-02-28T11:29:57;101387.69;;;8.67;62.22
76853;BME280;65825;52.232;10.566;2024-02-28T11:32:25;101380.41;;;8.87;62.50
76853;BME280;65825;52.232;10.566;2024-02-28T11:34:51;101381.00;;;8.39;63.61
76853;BME280;65825;52.232;10.566;2024-02-28T11:37:18;101386.13;;;8.51;63.29
76853;BME280;65825;52.232;10.566;2024-02-28T11:39:49;101375.44;;;8.63;63.25
76853;BME280;65825;52.232;10.566;2024-02-28T11:42:15;101374.44;;;9.32;64.48
76853;BME280;65825;52.232;10.566;2024-02-28T11:44:41;101372.78;;;9.78;61.88
76853;BME280;65825;52.232;10.566;2024-02-28T11:47:10;101376.25;;;10.29;60.37
76853;BME280;65825;52.232;10.566;2024-02-28T11:49:39;101373.16;;;10.51;60.09
76853;BME280;65825;52.232;10.566;2024-02-28T11:52:05;101377.44;;;10.58;58.29
76853;BME280;65825;52.232;10.566;2024-02-28T11:54:30;101366.94;;;10.54;58.23
76853;BME280;65825;52.232;10.566;2024-02-28T11:56:56;101367.47;;;10.28;57.77
76853;BME280;65825;52.232;10.566;2024-02-28T11:59:21;101355.97;;;10.73;58.09
76853;BME280;65825;52.232;10.566;2024-02-28T12:01:46;101371.31;;;10.12;58.21
76853;BME280;65825;52.232;10.566;2024-02-28T12:04:12;101363.41;;;9.61;59.92
76853;BME280;65825;52.232;10.566;2024-02-28T12:06:38;101360.97;;;9.52;60.15
76853;BME280;65825;52.232;10.566;2024-02-28T12:09:09;101360.28;;;9.39;60.50
76853;BME280;65825;52.232;10.566;2024-02-28T12:11:37;101353.78;;;9.60;60.75
76853;BME280;65825;52.232;10.566;2024-02-28T12:14:03;101360.03;;;8.98;61.29
76853;BME280;65825;52.232;10.566;2024-02-28T12:16:30;101359.06;;;9.04;61.69
76853;BME280;65825;52.232;10.566;2024-02-28T12:18:55;101351.28;;;9.52;60.89
76853;BME280;65825;52.232;10.566;2024-02-28T12:21:21;101355.44;;;9.65;60.01
76853;BME280;65825;52.232;10.566;2024-02-28T12:23:47;101351.03;;;9.66;60.46
76853;BME280;65825;52.232;10.566;2024-02-28T12:26:16;101349.56;;;9.50;60.00
76853;BME280;65825;52.232;10.566;2024-02-28T12:28:43;101353.78;;;9.58;60.82
76853;BME280;65825;52.232;10.566;2024-02-28T12:31:08;101348.41;;;9.66;60.04
76853;BME280;65825;52.232;10.566;2024-02-28T12:33:36;101345.66;;;9.20;60.73
76853;BME280;65825;52.232;10.566;2024-02-28T12:36:02;101358.59;;;9.34;61.15
76853;BME280;65825;52.232;10.566;2024-02-28T12:38:29;101351.75;;;9.22;61.01
76853;BME280;65825;52.232;10.566;2024-02-28T12:40:54;101350.28;;;9.59;60.96
76853;BME280;65825;52.232;10.566;2024-02-28T12:43:20;101351.44;;;8.87;61.92